• °C
  • Pobieranie danych...
wx

SEKCJA WYDRUKÓW, pokaż »

METAR EPCE 241030Z 24006KT 1000 BR OVC002 03/03
Q1031 RMK 031 099 8/8=

METAR EPDA 241030Z 24008KT 210V270 0400 -DZ FG VV002 03/03
Q1032 RMK 033 100 ///=

METAR EPDE 241030Z 17006KT CAVOK M04/M09 Q1036 RMK M045 072 2/1=

METAR EPIR 241030Z 21006KT 1500 BR SCT006 OVC011 01/01 Q1033 RMK 014
100 8/4=

METAR EPKS 241030Z 21005KT 180V240 5000 BR BKN007 OVC010 03/02 Q1034
RMK 026 095 8/5=

METAR EPLK 241030Z 21005KT 5000 BR BKN020 BKN065 00/00 Q1034
RMK 000 100 7/5=

METAR EPLY 241030Z 23004KT 6000 BKN023 00/M03 Q1034 RMK 004 077 7/7=

METAR EPMB 241030Z 20010KT 3000 -DZ BR BKN005 OVC015 02/02 Q1032 RMK
022 097 8/5=

METAR EPMI 241030Z 23004KT 1400 R30/P2000N -DZ BR OVC003 03/03 Q1033
RMK 034 100 8/8=

METAR EPMM 241030Z 21006KT 170V240 9999 OVC063 M03/M08 Q1034 RMK
M031 067 8/8=

METAR EPNA 241030Z NIL=

METAR EPOK 241030Z 27011KT 9999 FEW007 SCT039 BKN/// 05/03
Q1030 RMK 046 091 6/2=

METAR EPPR 241030Z 22006KT 9999 BKN043 04/02 Q1031 RMK 038 087 7/7=

METAR EPPW 241030Z 20004KT 0200 R28L/0650N FG OVC001 01/01
Q1034 RMK 006 100 8/8=

METAR EPRA 241030Z NIL=

METAR EPSN 241030Z 27008KT 2500 -DZ BR OVC003 04/04 Q1032 RMK 043 100
8/8=

METAR EPTM 241030Z 18004KT 8000 BKN018 BKN100 M02/M06 Q1035 RMK M025
076 7/5=



Serwisy IMGW-PIB